sensor_id;sensor_type;location;lat;lon;timestamp;pressure;altitude;pressure_sealevel;temperature;humidity
16120;BME280;12670;53.502;10.252;2023-04-06T00:02:26;101663.97;;;3.15;83.97
16120;BME280;12670;53.502;10.252;2023-04-06T00:05:29;101658.75;;;3.21;83.67
16120;BME280;12670;53.502;10.252;2023-04-06T00:08:32;101649.97;;;3.10;84.05
16120;BME280;12670;53.502;10.252;2023-04-06T00:11:35;101658.75;;;3.11;84.31
16120;BME280;12670;53.502;10.252;2023-04-06T00:14:39;101662.25;;;3.17;84.07
16120;BME280;12670;53.502;10.252;2023-04-06T00:17:42;101654.34;;;3.07;83.37
16120;BME280;12670;53.502;10.252;2023-04-06T00:20:44;101656.94;;;2.99;84.14
16120;BME280;12670;53.502;10.252;2023-04-06T00:23:47;101658.66;;;2.91;84.51
16120;BME280;12670;53.502;10.252;2023-04-06T00:26:50;101651.72;;;2.99;83.83
16120;BME280;12670;53.502;10.252;2023-04-06T00:29:54;101647.25;;;2.78;84.39
16120;BME280;12670;53.502;10.252;2023-04-06T00:32:57;101639.44;;;2.87;84.78
16120;BME280;12670;53.502;10.252;2023-04-06T00:36:00;101644.63;;;2.86;84.14
16120;BME280;12670;53.502;10.252;2023-04-06T00:39:03;101635.00;;;2.77;84.32
16120;BME280;12670;53.502;10.252;2023-04-06T00:42:09;101629.72;;;2.68;85.01
16120;BME280;12670;53.502;10.252;2023-04-06T00:45:14;101627.09;;;2.66;84.95
16120;BME280;12670;53.502;10.252;2023-04-06T00:48:17;101625.38;;;2.70;85.25
16120;BME280;12670;53.502;10.252;2023-04-06T00:51:20;101624.53;;;2.77;84.70
16120;BME280;12670;53.502;10.252;2023-04-06T00:54:22;101635.91;;;2.84;84.48
16120;BME280;12670;53.502;10.252;2023-04-06T00:57:26;101626.25;;;2.71;85.08
16120;BME280;12670;53.502;10.252;2023-04-06T01:00:30;101625.28;;;2.55;85.88
16120;BME280;12670;53.502;10.252;2023-04-06T01:03:34;101622.69;;;2.59;85.76
16120;BME280;12670;53.502;10.252;2023-04-06T01:06:36;101620.97;;;2.69;85.10
16120;BME280;12670;53.502;10.252;2023-04-06T01:09:39;101620.13;;;2.70;85.22
16120;BME280;12670;53.502;10.252;2023-04-06T01:12:43;101610.47;;;2.63;85.30
16120;BME280;12670;53.502;10.252;2023-04-06T01:15:47;101613.97;;;2.59;85.11
16120;BME280;12670;53.502;10.252;2023-04-06T01:18:50;101619.22;;;2.68;85.03
16120;BME280;12670;53.502;10.252;2023-04-06T01:21:53;101611.34;;;2.63;84.71
16120;BME280;12670;53.502;10.252;2023-04-06T01:24:57;101606.03;;;2.50;85.61
16120;BME280;12670;53.502;10.252;2023-04-06T01:28:00;101608.66;;;2.47;85.54
16120;BME280;12670;53.502;10.252;2023-04-06T01:31:03;101604.31;;;2.47;85.97
16120;BME280;12670;53.502;10.252;2023-04-06T01:34:06;101606.81;;;2.33;86.11
16120;BME280;12670;53.502;10.252;2023-04-06T01:37:09;101605.94;;;2.34;86.27
16120;BME280;12670;53.502;10.252;2023-04-06T01:40:13;101604.25;;;2.36;86.09
16120;BME280;12670;53.502;10.252;2023-04-06T01:43:16;101605.06;;;2.34;86.01
16120;BME280;12670;53.502;10.252;2023-04-06T01:46:19;101599.88;;;2.35;85.69
16120;BME280;12670;53.502;10.252;2023-04-06T01:49:22;101601.63;;;2.39;86.17
16120;BME280;12670;53.502;10.252;2023-04-06T01:52:24;101596.41;;;2.46;85.92
16120;BME280;12670;53.502;10.252;2023-04-06T01:55:29;101594.63;;;2.35;85.76
16120;BME280;12670;53.502;10.252;2023-04-06T01:58:32;101596.38;;;2.39;85.77
16120;BME280;12670;53.502;10.252;2023-04-06T02:01:34;101599.03;;;2.41;85.60
16120;BME280;12670;53.502;10.252;2023-04-06T02:04:37;101592.88;;;2.37;86.02
16120;BME280;12670;53.502;10.252;2023-04-06T02:07:40;101590.31;;;2.44;85.37
16120;BME280;12670;53.502;10.252;2023-04-06T02:10:44;101585.91;;;2.39;85.87
16120;BME280;12670;53.502;10.252;2023-04-06T02:13:47;101583.28;;;2.35;86.34
16120;BME280;12670;53.502;10.252;2023-04-06T02:16:49;101584.91;;;2.16;86.64
16120;BME280;12670;53.502;10.252;2023-04-06T02:19:52;101578.88;;;2.31;86.04
16120;BME280;12670;53.502;10.252;2023-04-06T02:22:58;101578.91;;;2.37;86.01
16120;BME280;12670;53.502;10.252;2023-04-06T02:26:02;101579.69;;;2.21;86.61
16120;BME280;12670;53.502;10.252;2023-04-06T02:29:05;101571.88;;;2.27;86.81
16120;BME280;12670;53.502;10.252;2023-04-06T02:32:09;101569.28;;;2.31;86.72
16120;BME280;12670;53.502;10.252;2023-04-06T02:35:12;101564.09;;;2.42;85.80
16120;BME280;12670;53.502;10.252;2023-04-06T02:38:14;101573.59;;;2.19;86.61
16120;BME280;12670;53.502;10.252;2023-04-06T02:41:19;101571.00;;;2.25;86.55
16120;BME280;12670;53.502;10.252;2023-04-06T02:44:21;101573.59;;;2.17;87.03
16120;BME280;12670;53.502;10.252;2023-04-06T02:47:24;101585.81;;;2.23;86.85
16120;BME280;12670;53.502;10.252;2023-04-06T02:50:27;101579.69;;;2.22;87.25
16120;BME280;12670;53.502;10.252;2023-04-06T02:53:30;101582.34;;;2.25;87.11
16120;BME280;12670;53.502;10.252;2023-04-06T02:56:34;101577.09;;;2.28;86.46
16120;BME280;12670;53.502;10.252;2023-04-06T02:59:37;101583.09;;;2.06;87.24
16120;BME280;12670;53.502;10.252;2023-04-06T03:02:40;101584.03;;;2.14;86.78
16120;BME280;12670;53.502;10.252;2023-04-06T03:05:42;101583.19;;;2.21;87.15
16120;BME280;12670;53.502;10.252;2023-04-06T03:08:45;101577.94;;;2.18;87.56
16120;BME280;12670;53.502;10.252;2023-04-06T03:11:49;101577.88;;;2.07;87.62
16120;BME280;12670;53.502;10.252;2023-04-06T03:14:52;101572.72;;;2.21;87.92
16120;BME280;12670;53.502;10.252;2023-04-06T03:17:55;101576.28;;;2.34;87.44
16120;BME280;12670;53.502;10.252;2023-04-06T03:21:00;101575.44;;;2.39;87.40
16120;BME280;12670;53.502;10.252;2023-04-06T03:24:04;101578.91;;;2.38;87.31
16120;BME280;12670;53.502;10.252;2023-04-06T03:27:09;101580.59;;;2.26;87.53
16120;BME280;12670;53.502;10.252;2023-04-06T03:30:12;101574.47;;;2.22;88.03
16120;BME280;12670;53.502;10.252;2023-04-06T03:33:15;101582.38;;;2.31;87.52
16120;BME280;12670;53.502;10.252;2023-04-06T03:36:17;101579.72;;;2.25;87.40
16120;BME280;12670;53.502;10.252;2023-04-06T03:39:20;101577.06;;;2.19;87.66
16120;BME280;12670;53.502;10.252;2023-04-06T03:42:24;101584.94;;;2.22;87.55
16120;BME280;12670;53.502;10.252;2023-04-06T03:45:28;101581.47;;;2.26;86.94
16120;BME280;12670;53.502;10.252;2023-04-06T03:48:30;101580.56;;;2.18;86.93
16120;BME280;12670;53.502;10.252;2023-04-06T03:51:33;101586.63;;;2.16;86.99
16120;BME280;12670;53.502;10.252;2023-04-06T03:54:36;101584.00;;;2.11;87.41
16120;BME280;12670;53.502;10.252;2023-04-06T03:57:40;101583.94;;;2.02;87.84
16120;BME280;12670;53.502;10.252;2023-04-06T04:00:43;101589.06;;;1.86;88.75
16120;BME280;12670;53.502;10.252;2023-04-06T04:03:45;101588.19;;;1.84;88.32
16120;BME280;12670;53.502;10.252;2023-04-06T04:06:52;101588.28;;;1.98;88.17
16120;BME280;12670;53.502;10.252;2023-04-06T04:09:55;101587.47;;;2.07;88.12
16120;BME280;12670;53.502;10.252;2023-04-06T04:12:59;101586.53;;;1.96;88.29
16120;BME280;12670;53.502;10.252;2023-04-06T04:16:02;101589.16;;;1.99;87.82
16120;BME280;12670;53.502;10.252;2023-04-06T04:19:05;101584.81;;;2.01;87.73
16120;BME280;12670;53.502;10.252;2023-04-06T04:22:08;101594.28;;;1.86;88.30
16120;BME280;12670;53.502;10.252;2023-04-06T04:25:11;101588.13;;;1.80;88.05
16120;BME280;12670;53.502;10.252;2023-04-06T04:28:15;101593.47;;;1.89;88.15
16120;BME280;12670;53.502;10.252;2023-04-06T04:31:17;101589.94;;;1.85;87.65
16120;BME280;12670;53.502;10.252;2023-04-06T04:34:21;101596.81;;;1.76;87.75
16120;BME280;12670;53.502;10.252;2023-04-06T04:37:25;101594.25;;;1.77;88.35
16120;BME280;12670;53.502;10.252;2023-04-06T04:40:28;101601.34;;;1.95;87.81
16120;BME280;12670;53.502;10.252;2023-04-06T04:43:32;101596.13;;;1.94;87.57
16120;BME280;12670;53.502;10.252;2023-04-06T04:46:35;101607.22;;;1.70;88.31
16120;BME280;12670;53.502;10.252;2023-04-06T04:49:37;101608.16;;;1.73;88.20
16120;BME280;12670;53.502;10.252;2023-04-06T04:52:40;101605.53;;;1.73;87.77
16120;BME280;12670;53.502;10.252;2023-04-06T04:55:43;101602.72;;;1.52;88.59
16120;BME280;12670;53.502;10.252;2023-04-06T04:58:47;101600.09;;;1.50;89.31
16120;BME280;12670;53.502;10.252;2023-04-06T05:01:50;101602.88;;;1.66;89.13
16120;BME280;12670;53.502;10.252;2023-04-06T05:04:56;101595.94;;;1.75;88.22
16120;BME280;12670;53.502;10.252;2023-04-06T05:07:59;101601.13;;;1.68;88.45
16120;BME280;12670;53.502;10.252;2023-04-06T05:11:01;101611.78;;;1.91;88.27
16120;BME280;12670;53.502;10.252;2023-04-06T05:14:07;101603.00;;;1.85;87.99
16120;BME280;12670;53.502;10.252;2023-04-06T05:17:09;101604.50;;;1.56;89.45
16120;BME280;12670;53.502;10.252;2023-04-06T05:20:13;101604.59;;;1.65;89.18
16120;BME280;12670;53.502;10.252;2023-04-06T05:23:16;101608.06;;;1.64;89.58
16120;BME280;12670;53.502;10.252;2023-04-06T05:26:18;101605.44;;;1.59;89.65
16120;BME280;12670;53.502;10.252;2023-04-06T05:29:22;101609.06;;;1.77;89.37
16120;BME280;12670;53.502;10.252;2023-04-06T05:32:26;101605.53;;;1.72;89.87
16120;BME280;12670;53.502;10.252;2023-04-06T05:35:29;101612.50;;;1.71;89.65
16120;BME280;12670;53.502;10.252;2023-04-06T05:38:32;101609.94;;;1.77;89.74
16120;BME280;12670;53.502;10.252;2023-04-06T05:41:35;101603.84;;;1.81;89.69
16120;BME280;12670;53.502;10.252;2023-04-06T05:44:40;101603.00;;;1.85;89.68
16120;BME280;12670;53.502;10.252;2023-04-06T05:47:42;101599.47;;;1.77;89.97
16120;BME280;12670;53.502;10.252;2023-04-06T05:50:48;101595.22;;;1.92;89.74
16120;BME280;12670;53.502;10.252;2023-04-06T05:53:50;101604.00;;;2.04;89.81
16120;BME280;12670;53.502;10.252;2023-04-06T05:56:53;101602.28;;;2.05;89.56
16120;BME280;12670;53.502;10.252;2023-04-06T05:59:57;101609.28;;;2.10;89.65
16120;BME280;12670;53.502;10.252;2023-04-06T06:03:00;101603.13;;;2.04;90.13
16120;BME280;12670;53.502;10.252;2023-04-06T06:06:05;101609.31;;;2.13;90.33
16120;BME280;12670;53.502;10.252;2023-04-06T06:09:08;101606.78;;;2.27;90.05
16120;BME280;12670;53.502;10.252;2023-04-06T06:12:11;101609.41;;;2.26;90.48
16120;BME280;12670;53.502;10.252;2023-04-06T06:15:16;101601.63;;;2.39;90.17
16120;BME280;12670;53.502;10.252;2023-04-06T06:18:19;101607.78;;;2.49;90.47
16120;BME280;12670;53.502;10.252;2023-04-06T06:21:22;101611.38;;;2.68;89.94
16120;BME280;12670;53.502;10.252;2023-04-06T06:24:24;101606.13;;;2.70;89.64
16120;BME280;12670;53.502;10.252;2023-04-06T06:27:29;101614.94;;;2.82;89.92
16120;BME280;12670;53.502;10.252;2023-04-06T06:30:33;101605.38;;;2.97;90.62
16120;BME280;12670;53.502;10.252;2023-04-06T06:33:36;101603.72;;;3.23;89.42
16120;BME280;12670;53.502;10.252;2023-04-06T06:36:39;101612.47;;;3.40;89.07
16120;BME280;12670;53.502;10.252;2023-04-06T06:39:41;101597.63;;;3.76;87.42
16120;BME280;12670;53.502;10.252;2023-04-06T06:42:44;101603.72;;;4.03;85.52
16120;BME280;12670;53.502;10.252;2023-04-06T06:45:48;101609.81;;;4.34;83.37
16120;BME280;12670;53.502;10.252;2023-04-06T06:48:52;101604.47;;;4.63;81.43
16120;BME280;12670;53.502;10.252;2023-04-06T06:51:54;101607.94;;;4.77;78.64
16120;BME280;12670;53.502;10.252;2023-04-06T06:54:57;101607.81;;;5.01;78.93
16120;BME280;12670;53.502;10.252;2023-04-06T06:58:00;101606.78;;;5.27;77.54
16120;BME280;12670;53.502;10.252;2023-04-06T07:01:04;101610.22;;;5.41;72.46
16120;BME280;12670;53.502;10.252;2023-04-06T07:04:07;101606.59;;;5.59;71.98
16120;BME280;12670;53.502;10.252;2023-04-06T07:07:17;101601.25;;;5.70;70.29
16120;BME280;12670;53.502;10.252;2023-04-06T07:10:20;101605.66;;;5.61;66.67
16120;BME280;12670;53.502;10.252;2023-04-06T07:13:22;101599.44;;;5.75;70.14
16120;BME280;12670;53.502;10.252;2023-04-06T07:16:27;101600.81;;;6.19;65.84
16120;BME280;12670;53.502;10.252;2023-04-06T07:19:30;101601.50;;;6.37;69.90
16120;BME280;12670;53.502;10.252;2023-04-06T07:22:33;101610.19;;;6.47;67.77
16120;BME280;12670;53.502;10.252;2023-04-06T07:25:35;101607.38;;;6.62;65.62
16120;BME280;12670;53.502;10.252;2023-04-06T07:28:38;101608.78;;;6.91;66.63
16120;BME280;12670;53.502;10.252;2023-04-06T07:31:43;101597.94;;;7.12;65.18
16120;BME280;12670;53.502;10.252;2023-04-06T07:34:46;101588.06;;;7.27;63.66
16120;BME280;12670;53.502;10.252;2023-04-06T07:37:49;101600.22;;;7.37;62.67
16120;BME280;12670;53.502;10.252;2023-04-06T07:40:52;101592.69;;;7.69;62.00
16120;BME280;12670;53.502;10.252;2023-04-06T07:43:55;101588.28;;;7.70;62.05
16120;BME280;12670;53.502;10.252;2023-04-06T07:46:59;101587.25;;;7.79;58.15
16120;BME280;12670;53.502;10.252;2023-04-06T07:50:02;101585.94;;;8.04;59.27
16120;BME280;12670;53.502;10.252;2023-04-06T07:53:05;101585.63;;;8.21;57.76
16120;BME280;12670;53.502;10.252;2023-04-06T07:56:07;101587.38;;;8.20;55.79
16120;BME280;12670;53.502;10.252;2023-04-06T07:59:10;101593.88;;;8.52;56.68
16120;BME280;12670;53.502;10.252;2023-04-06T08:02:16;101588.34;;;8.64;55.15
16120;BME280;12670;53.502;10.252;2023-04-06T08:05:19;101586.00;;;8.91;53.14
16120;BME280;12670;53.502;10.252;2023-04-06T08:08:22;101586.47;;;9.11;53.20
16120;BME280;12670;53.502;10.252;2023-04-06T08:11:25;101585.28;;;9.24;49.45
16120;BME280;12670;53.502;10.252;2023-04-06T08:14:28;101590.22;;;9.01;50.25
16120;BME280;12670;53.502;10.252;2023-04-06T08:17:32;101587.16;;;9.19;50.94
16120;BME280;12670;53.502;10.252;2023-04-06T08:20:35;101588.78;;;9.26;50.57
16120;BME280;12670;53.502;10.252;2023-04-06T08:23:38;101590.31;;;9.74;49.71
16120;BME280;12670;53.502;10.252;2023-04-06T08:26:41;101590.50;;;10.00;46.69
16120;BME280;12670;53.502;10.252;2023-04-06T08:29:44;101586.97;;;10.00;47.33
16120;BME280;12670;53.502;10.252;2023-04-06T08:32:48;101582.25;;;10.11;48.31
16120;BME280;12670;53.502;10.252;2023-04-06T08:35:51;101589.19;;;10.51;46.10
16120;BME280;12670;53.502;10.252;2023-04-06T08:38:54;101587.00;;;10.65;46.88
16120;BME280;12670;53.502;10.252;2023-04-06T08:41:57;101586.06;;;10.97;46.00
16120;BME280;12670;53.502;10.252;2023-04-06T08:45:01;101574.78;;;11.18;46.64
16120;BME280;12670;53.502;10.252;2023-04-06T08:48:06;101580.69;;;11.28;43.04
16120;BME280;12670;53.502;10.252;2023-04-06T08:51:11;101578.94;;;11.27;43.80
16120;BME280;12670;53.502;10.252;2023-04-06T08:54:14;101580.75;;;11.25;41.62
16120;BME280;12670;53.502;10.252;2023-04-06T08:57:18;101579.81;;;11.56;43.24
16120;BME280;12670;53.502;10.252;2023-04-06T09:00:21;101581.94;;;11.99;41.90
16120;BME280;12670;53.502;10.252;2023-04-06T09:03:28;101570.56;;;12.20;41.03
16120;BME280;12670;53.502;10.252;2023-04-06T09:06:31;101576.97;;;12.15;45.37
16120;BME280;12670;53.502;10.252;2023-04-06T09:09:34;101572.34;;;11.67;41.61
16120;BME280;12670;53.502;10.252;2023-04-06T09:12:37;101566.72;;;11.76;39.46
16120;BME280;12670;53.502;10.252;2023-04-06T09:15:40;101565.75;;;12.30;41.13
16120;BME280;12670;53.502;10.252;2023-04-06T09:18:44;101576.41;;;12.55;39.29
16120;BME280;12670;53.502;10.252;2023-04-06T09:21:47;101569.00;;;12.63;38.98
16120;BME280;12670;53.502;10.252;2023-04-06T09:24:52;101562.06;;;12.34;40.38
16120;BME280;12670;53.502;10.252;2023-04-06T09:27:58;101570.03;;;12.82;42.39
16120;BME280;12670;53.502;10.252;2023-04-06T09:31:01;101559.75;;;12.95;40.58
16120;BME280;12670;53.502;10.252;2023-04-06T09:34:05;101548.47;;;13.12;40.17
16120;BME280;12670;53.502;10.252;2023-04-06T09:37:13;101539.91;;;13.27;37.18
16120;BME280;12670;53.502;10.252;2023-04-06T09:40:16;101536.91;;;12.90;38.67
16120;BME280;12670;53.502;10.252;2023-04-06T09:43:24;101539.13;;;13.02;39.39
16120;BME280;12670;53.502;10.252;2023-04-06T09:46:27;101533.91;;;12.99;37.72
16120;BME280;12670;53.502;10.252;2023-04-06T09:49:50;101524.88;;;13.25;35.20
16120;BME280;12670;53.502;10.252;2023-04-06T09:52:54;101537.16;;;13.93;33.51
16120;BME280;12670;53.502;10.252;2023-04-06T09:56:02;101530.50;;;14.82;33.21
16120;BME280;12670;53.502;10.252;2023-04-06T09:59:09;101531.03;;;15.09;33.21
16120;BME280;12670;53.502;10.252;2023-04-06T10:02:19;101535.72;;;14.85;30.81
16120;BME280;12670;53.502;10.252;2023-04-06T10:05:31;101531.47;;;15.36;31.88
16120;BME280;12670;53.502;10.252;2023-04-06T10:08:38;101526.53;;;15.82;32.62
16120;BME280;12670;53.502;10.252;2023-04-06T10:11:42;101529.69;;;15.72;29.85
16120;BME280;12670;53.502;10.252;2023-04-06T10:14:45;101526.06;;;15.91;32.25
16120;BME280;12670;53.502;10.252;2023-04-06T10:17:48;101534.41;;;16.02;32.53
16120;BME280;12670;53.502;10.252;2023-04-06T10:20:55;101516.78;;;16.64;31.94
16120;BME280;12670;53.502;10.252;2023-04-06T10:24:01;101516.59;;;16.85;28.02
16120;BME280;12670;53.502;10.252;2023-04-06T10:27:06;101517.13;;;17.07;30.39
16120;BME280;12670;53.502;10.252;2023-04-06T10:30:10;101525.75;;;16.96;29.59
16120;BME280;12670;53.502;10.252;2023-04-06T10:33:14;101523.25;;;17.09;30.28
16120;BME280;12670;53.502;10.252;2023-04-06T10:36:24;101514.78;;;17.63;29.44
16120;BME280;12670;53.502;10.252;2023-04-06T10:39:27;101513.50;;;17.08;29.22
16120;BME280;12670;53.502;10.252;2023-04-06T10:42:36;101514.59;;;17.81;27.93
16120;BME280;12670;53.502;10.252;2023-04-06T10:45:40;101509.41;;;17.78;30.42
16120;BME280;12670;53.502;10.252;2023-04-06T10:48:45;101513.88;;;18.08;27.59
16120;BME280;12670;53.502;10.252;2023-04-06T10:51:54;101511.03;;;18.25;29.10
16120;BME280;12670;53.502;10.252;2023-04-06T10:54:57;101519.56;;;18.32;29.46
16120;BME280;12670;53.502;10.252;2023-04-06T10:58:00;101515.66;;;18.80;28.88
16120;BME280;12670;53.502;10.252;2023-04-06T11:01:03;101493.00;;;17.53;26.85
16120;BME280;12670;53.502;10.252;2023-04-06T11:04:06;101507.19;;;18.58;28.57
16120;BME280;12670;53.502;10.252;2023-04-06T11:07:23;101506.84;;;17.61;27.15
16120;BME280;12670;53.502;10.252;2023-04-06T11:10:26;101507.56;;;18.09;27.43
16120;BME280;12670;53.502;10.252;2023-04-06T11:13:37;101491.84;;;18.31;28.18
16120;BME280;12670;53.502;10.252;2023-04-06T11:16:39;101494.44;;;18.47;26.35
16120;BME280;12670;53.502;10.252;2023-04-06T11:19:42;101486.97;;;19.08;29.23
16120;BME280;12670;53.502;10.252;2023-04-06T11:22:50;101492.16;;;19.65;27.33
16120;BME280;12670;53.502;10.252;2023-04-06T11:25:53;101488.19;;;19.43;26.64
16120;BME280;12670;53.502;10.252;2023-04-06T11:28:56;101494.28;;;20.00;27.95
16120;BME280;12670;53.502;10.252;2023-04-06T11:32:01;101476.44;;;19.59;26.20
16120;BME280;12670;53.502;10.252;2023-04-06T11:35:05;101482.94;;;19.82;27.96
16120;BME280;12670;53.502;10.252;2023-04-06T11:38:09;101477.13;;;19.88;27.38
16120;BME280;12670;53.502;10.252;2023-04-06T11:41:12;101479.16;;;19.44;26.15
16120;BME280;12670;53.502;10.252;2023-04-06T11:44:15;101464.09;;;19.42;26.20
16120;BME280;12670;53.502;10.252;2023-04-06T11:47:18;101460.19;;;19.98;25.92
16120;BME280;12670;53.502;10.252;2023-04-06T11:50:21;101469.78;;;20.28;25.82
16120;BME280;12670;53.502;10.252;2023-04-06T11:53:26;101467.09;;;20.28;25.83
16120;BME280;12670;53.502;10.252;2023-04-06T11:56:29;101478.63;;;20.68;26.72
16120;BME280;12670;53.502;10.252;2023-04-06T11:59:32;101467.56;;;20.47;25.63
16120;BME280;12670;53.502;10.252;2023-04-06T12:02:35;101464.44;;;20.90;25.81
16120;BME280;12670;53.502;10.252;2023-04-06T12:05:39;101460.22;;;20.86;26.31
16120;BME280;12670;53.502;10.252;2023-04-06T12:08:43;101462.25;;;20.59;24.55
16120;BME280;12670;53.502;10.252;2023-04-06T12:11:46;101468.03;;;20.78;25.23
16120;BME280;12670;53.502;10.252;2023-04-06T12:14:49;101451.47;;;20.59;24.67
16120;BME280;12670;53.502;10.252;2023-04-06T12:17:51;101452.94;;;20.63;23.73
16120;BME280;12670;53.502;10.252;2023-04-06T12:20:54;101444.44;;;20.93;24.77
16120;BME280;12670;53.502;10.252;2023-04-06T12:23:59;101455.03;;;21.20;24.92
16120;BME280;12670;53.502;10.252;2023-04-06T12:27:02;101462.50;;;20.17;25.03
16120;BME280;12670;53.502;10.252;2023-04-06T12:30:12;101458.97;;;20.79;23.91
16120;BME280;12670;53.502;10.252;2023-04-06T12:33:14;101455.88;;;20.60;24.44
16120;BME280;12670;53.502;10.252;2023-04-06T12:36:20;101450.84;;;20.17;25.99
16120;BME280;12670;53.502;10.252;2023-04-06T12:39:24;101440.47;;;20.86;25.25
16120;BME280;12670;53.502;10.252;2023-04-06T12:42:28;101447.56;;;21.47;24.90
16120;BME280;12670;53.502;10.252;2023-04-06T12:45:31;101446.63;;;21.60;24.33
16120;BME280;12670;53.502;10.252;2023-04-06T12:48:34;101443.75;;;21.26;23.19
16120;BME280;12670;53.502;10.252;2023-04-06T12:51:37;101443.38;;;21.43;23.08
16120;BME280;12670;53.502;10.252;2023-04-06T12:54:42;101444.16;;;21.09;24.36
16120;BME280;12670;53.502;10.252;2023-04-06T12:57:46;101435.06;;;21.58;25.00
16120;BME280;12670;53.502;10.252;2023-04-06T13:00:49;101437.63;;;21.94;26.06
16120;BME280;12670;53.502;10.252;2023-04-06T13:03:52;101439.03;;;21.06;24.57
16120;BME280;12670;53.502;10.252;2023-04-06T13:06:55;101437.22;;;21.76;24.01
16120;BME280;12670;53.502;10.252;2023-04-06T13:09:59;101430.00;;;21.42;23.14
16120;BME280;12670;53.502;10.252;2023-04-06T13:13:02;101417.66;;;19.78;25.72
16120;BME280;12670;53.502;10.252;2023-04-06T13:16:07;101414.53;;;21.20;24.24
16120;BME280;12670;53.502;10.252;2023-04-06T13:19:10;101419.38;;;21.03;24.79
16120;BME280;12670;53.502;10.252;2023-04-06T13:22:13;101413.84;;;20.81;23.25
16120;BME280;12670;53.502;10.252;2023-04-06T13:25:18;101416.75;;;20.54;25.88
16120;BME280;12670;53.502;10.252;2023-04-06T13:28:21;101419.13;;;21.54;26.46
16120;BME280;12670;53.502;10.252;2023-04-06T13:31:24;101408.38;;;21.07;24.45
16120;BME280;12670;53.502;10.252;2023-04-06T13:34:27;101408.03;;;20.87;23.02
16120;BME280;12670;53.502;10.252;2023-04-06T13:37:30;101405.66;;;21.07;23.08
16120;BME280;12670;53.502;10.252;2023-04-06T13:40:35;101397.66;;;20.81;25.83
16120;BME280;12670;53.502;10.252;2023-04-06T13:43:37;101398.25;;;20.97;24.84
16120;BME280;12670;53.502;10.252;2023-04-06T13:46:40;101398.31;;;21.09;24.41
16120;BME280;12670;53.502;10.252;2023-04-06T13:49:44;101392.50;;;20.78;25.78
16120;BME280;12670;53.502;10.252;2023-04-06T13:52:47;101393.00;;;19.97;24.47
16120;BME280;12670;53.502;10.252;2023-04-06T13:55:55;101381.56;;;19.68;24.94
16120;BME280;12670;53.502;10.252;2023-04-06T13:58:57;101385.09;;;19.56;26.06
16120;BME280;12670;53.502;10.252;2023-04-06T14:02:00;101377.88;;;19.43;26.33
16120;BME280;12670;53.502;10.252;2023-04-06T14:05:04;101379.75;;;19.68;26.19
16120;BME280;12670;53.502;10.252;2023-04-06T14:08:06;101371.50;;;19.44;26.73
16120;BME280;12670;53.502;10.252;2023-04-06T14:11:12;101379.94;;;19.53;26.45
16120;BME280;12670;53.502;10.252;2023-04-06T14:14:15;101376.72;;;19.08;26.59
16120;BME280;12670;53.502;10.252;2023-04-06T14:17:17;101372.88;;;18.44;27.54
16120;BME280;12670;53.502;10.252;2023-04-06T14:20:21;101379.56;;;18.92;26.99
16120;BME280;12670;53.502;10.252;2023-04-06T14:23:24;101370.81;;;18.61;27.37
16120;BME280;12670;53.502;10.252;2023-04-06T14:26:29;101372.44;;;17.94;28.40
16120;BME280;12670;53.502;10.252;2023-04-06T14:29:31;101363.78;;;17.75;27.83
16120;BME280;12670;53.502;10.252;2023-04-06T14:32:34;101371.69;;;17.78;27.98
16120;BME280;12670;53.502;10.252;2023-04-06T14:35:38;101370.75;;;17.63;27.61
16120;BME280;12670;53.502;10.252;2023-04-06T14:38:41;101356.44;;;17.04;28.85
16120;BME280;12670;53.502;10.252;2023-04-06T14:41:46;101370.03;;;17.01;30.03
16120;BME280;12670;53.502;10.252;2023-04-06T14:44:51;101366.25;;;17.19;28.89
16120;BME280;12670;53.502;10.252;2023-04-06T14:47:55;101355.44;;;16.91;30.23
16120;BME280;12670;53.502;10.252;2023-04-06T14:50:57;101361.88;;;17.18;30.69
16120;BME280;12670;53.502;10.252;2023-04-06T14:54:00;101356.66;;;17.15;28.66
16120;BME280;12670;53.502;10.252;2023-04-06T14:57:05;101361.50;;;17.39;29.73
16120;BME280;12670;53.502;10.252;2023-04-06T15:00:09;101359.34;;;17.15;29.25
16120;BME280;12670;53.502;10.252;2023-04-06T15:03:12;101364.34;;;17.21;30.41
16120;BME280;12670;53.502;10.252;2023-04-06T15:06:18;101355.78;;;17.00;28.93
16120;BME280;12670;53.502;10.252;2023-04-06T15:09:22;101358.38;;;16.70;30.75
16120;BME280;12670;53.502;10.252;2023-04-06T15:12:26;101364.34;;;15.79;31.15
16120;BME280;12670;53.502;10.252;2023-04-06T15:15:30;101352.75;;;15.96;31.06
16120;BME280;12670;53.502;10.252;2023-04-06T15:18:33;101346.31;;;16.32;31.02
16120;BME280;12670;53.502;10.252;2023-04-06T15:21:36;101351.06;;;15.93;30.91
16120;BME280;12670;53.502;10.252;2023-04-06T15:24:39;101343.91;;;15.94;30.96
16120;BME280;12670;53.502;10.252;2023-04-06T15:27:43;101347.38;;;15.28;31.35
16120;BME280;12670;53.502;10.252;2023-04-06T15:30:45;101354.31;;;15.67;31.94
16120;BME280;12670;53.502;10.252;2023-04-06T15:33:48;101351.41;;;15.37;31.69
16120;BME280;12670;53.502;10.252;2023-04-06T15:36:51;101348.78;;;15.53;32.55
16120;BME280;12670;53.502;10.252;2023-04-06T15:39:54;101347.47;;;15.27;31.15
16120;BME280;12670;53.502;10.252;2023-04-06T15:42:58;101340.31;;;15.27;32.32
16120;BME280;12670;53.502;10.252;2023-04-06T15:46:01;101346.69;;;15.42;32.02
16120;BME280;12670;53.502;10.252;2023-04-06T15:49:05;101351.78;;;15.12;32.64
16120;BME280;12670;53.502;10.252;2023-04-06T15:52:08;101354.53;;;15.28;31.44
16120;BME280;12670;53.502;10.252;2023-04-06T15:55:10;101341.34;;;14.90;32.90